Time;durP1;ratioP1;P1;durP2;ratioP2;P2;SDS_P1;SDS_P2;PMS_P1;PMS_P2;Temp;Humidity;BMP_temperature;BMP_pressure;BME280_temperature;BME280_humidity;BME280_pressure;Samples;Min_cycle;Max_cycle;Signal;HPM_P1;HPM_P2
2022/05/09 00:01:17;;;;;;;0.10;0.10;;;11.30;1.00;10.10;98176.00;;;;5062155;28;20196;-68
2022/05/09 00:03:45;;;;;;;0.10;0.10;;;11.30;1.00;10.00;98187.00;;;;5057797;28;20203;-69
2022/05/09 00:06:15;;;;;;;0.10;0.10;;;11.20;1.00;10.00;98174.00;;;;5040869;28;20219;-67
2022/05/09 00:08:50;;;;;;;0.10;0.10;;;11.20;1.00;9.80;98171.00;;;;5046627;28;20206;-71
2022/05/09 00:11:18;;;;;;;0.10;0.10;;;10.90;1.00;9.70;98173.00;;;;5059897;28;20239;-70
2022/05/09 00:13:46;;;;;;;0.10;0.10;;;10.80;1.00;9.60;98171.00;;;;5053238;28;20195;-71
2022/05/09 00:16:14;;;;;;;0.10;0.10;;;10.70;1.00;9.70;98163.00;;;;5057859;28;20218;-69
2022/05/09 00:18:43;;;;;;;0.10;0.10;;;10.80;1.00;9.70;98172.00;;;;5057334;28;20202;-69
2022/05/09 00:21:11;;;;;;;0.10;0.10;;;10.80;1.00;9.70;98171.00;;;;5051478;28;20216;-68
2022/05/09 00:23:40;;;;;;;0.10;0.10;;;10.80;1.00;9.60;98172.00;;;;5067626;28;20206;-67
2022/05/09 00:26:08;;;;;;;0.10;0.10;;;10.80;1.00;9.60;98178.00;;;;5051475;28;20214;-68
2022/05/09 00:28:38;;;;;;;0.10;0.10;;;10.80;1.00;9.50;98165.00;;;;5037475;28;20566;-70
2022/05/09 00:31:06;;;;;;;0.10;0.10;;;10.60;1.00;9.40;98168.00;;;;5054229;28;20194;-67
2022/05/09 00:33:34;;;;;;;0.10;0.10;;;10.50;1.00;9.20;98168.00;;;;5054332;28;20190;-67
2022/05/09 00:36:02;;;;;;;0.10;0.10;;;10.30;1.00;9.20;98174.00;;;;5069196;28;20619;-67
2022/05/09 00:38:30;;;;;;;0.10;0.10;;;10.20;90.10;9.20;98172.00;;;;5036034;28;20252;-67
2022/05/09 00:43:45;;;;;;;0.10;0.10;;;10.20;99.90;9.10;98178.00;;;;5059917;28;20194;-68
2022/05/09 00:46:13;;;;;;;0.10;0.10;;;10.10;99.90;9.10;98160.00;;;;5053989;28;20632;-69
2022/05/09 00:48:41;;;;;;;0.10;0.10;;;10.10;99.90;9.00;98168.00;;;;5035411;28;20684;-68
2022/05/09 00:51:11;;;;;;;0.10;0.10;;;10.10;99.90;8.90;98174.00;;;;5064867;28;20190;-69
2022/05/09 00:53:40;;;;;;;0.10;0.10;;;10.10;99.90;8.90;98166.00;;;;5061238;28;20225;-70
2022/05/09 00:56:19;;;;;;;0.10;0.10;;;10.00;99.90;8.90;98170.00;;;;5051365;28;20727;-68
2022/05/09 00:58:53;;;;;;;0.10;0.10;;;9.90;99.90;9.00;98160.00;;;;5051907;28;20202;-68
2022/05/09 01:01:22;;;;;;;0.10;0.10;;;10.00;99.90;9.10;98153.00;;;;5056767;28;20715;-68
2022/05/09 01:03:54;;;;;;;0.10;0.10;;;10.10;99.90;9.00;98148.00;;;;5050880;28;20228;-68
2022/05/09 01:06:24;;;;;;;0.10;0.10;;;10.00;99.90;9.00;98148.00;;;;5069125;28;20213;-68
2022/05/09 01:08:52;;;;;;;0.10;0.10;;;10.10;99.90;9.00;98154.00;;;;5053431;28;20580;-68
2022/05/09 01:11:26;;;;;;;0.10;0.10;;;10.10;99.90;8.90;98148.00;;;;5065624;28;20600;-68
2022/05/09 01:14:04;;;;;;;0.10;0.10;;;10.00;99.90;8.80;98144.00;;;;5041544;28;20223;-68
2022/05/09 01:16:34;;;;;;;0.10;0.10;;;9.90;99.90;8.80;98141.00;;;;5039433;28;20198;-68
2022/05/09 01:19:23;;;;;;;0.10;0.10;;;9.80;99.90;8.80;98148.00;;;;5055597;28;20194;-69
2022/05/09 01:21:53;;;;;;;0.10;0.10;;;9.90;99.90;8.80;98143.00;;;;5057151;28;20189;-69
2022/05/09 01:24:24;;;;;;;0.10;0.10;;;9.90;99.90;8.80;98149.00;;;;5071087;28;20618;-69
2022/05/09 01:26:53;;;;;;;0.10;0.10;;;9.90;99.90;8.70;98152.00;;;;5057057;28;20255;-71
2022/05/09 01:29:36;;;;;;;0.10;0.10;;;9.80;99.90;8.70;98156.00;;;;5052063;28;20229;-70
2022/05/09 01:32:12;;;;;;;0.10;0.10;;;9.90;99.90;8.70;98145.00;;;;5054619;28;20262;-67
2022/05/09 01:34:47;;;;;;;0.10;0.10;;;9.80;99.90;8.70;98147.00;;;;5055036;28;20218;-71
2022/05/09 01:37:21;;;;;;;0.10;0.10;;;9.80;99.90;8.60;98140.00;;;;5032806;28;20669;-70
2022/05/09 01:39:49;;;;;;;0.10;0.10;;;9.70;99.90;8.60;98151.00;;;;5067381;28;20205;-70
2022/05/09 01:42:17;;;;;;;0.10;0.10;;;9.70;99.90;8.50;98155.00;;;;5066019;28;20189;-67
2022/05/09 01:44:45;;;;;;;0.10;0.10;;;9.60;99.90;8.50;98138.00;;;;5073777;28;20263;-67
2022/05/09 01:49:59;;;;;;;0.10;0.10;;;9.70;93.50;8.60;98138.00;;;;5035664;28;20222;-67
2022/05/09 01:52:29;;;;;;;0.10;0.10;;;9.80;8.40;8.40;98125.00;;;;5044082;28;20217;-67
2022/05/09 01:54:57;;;;;;;0.10;0.10;;;9.70;1.00;8.30;98127.00;;;;5036993;28;20219;-67
2022/05/09 01:57:25;;;;;;;0.10;0.10;;;9.50;62.10;8.20;98125.00;;;;5052663;28;20249;-67
2022/05/09 01:59:53;;;;;;;0.10;0.10;;;9.40;99.90;8.20;98128.00;;;;5051247;28;20202;-68
2022/05/09 02:02:23;;;;;;;0.10;0.10;;;9.40;99.90;8.20;98134.00;;;;5052116;28;20248;-70
2022/05/09 02:04:51;;;;;;;0.10;0.10;;;9.30;99.90;8.20;98124.00;;;;5051008;28;20221;-68
2022/05/09 02:07:21;;;;;;;0.10;0.10;;;9.40;99.90;8.30;98126.00;;;;5039496;28;20245;-70
2022/05/09 02:09:51;;;;;;;0.10;0.10;;;9.50;99.90;8.30;98127.00;;;;5050204;28;20221;-69
2022/05/09 02:12:21;;;;;;;0.10;0.10;;;9.40;99.90;8.00;98133.00;;;;5069427;28;20193;-67
2022/05/09 02:14:50;;;;;;;0.10;0.10;;;9.10;99.90;7.90;98135.00;;;;5071154;28;20811;-67
2022/05/09 02:17:18;;;;;;;0.10;0.10;;;9.00;99.90;7.90;98135.00;;;;5071150;28;20627;-67
2022/05/09 02:19:46;;;;;;;0.10;0.10;;;9.00;99.90;7.90;98133.00;;;;5057760;28;20740;-70
2022/05/09 02:22:15;;;;;;;0.10;0.10;;;9.00;99.90;7.90;98138.00;;;;5051439;28;20202;-68
2022/05/09 02:24:45;;;;;;;0.10;0.10;;;9.00;99.90;7.80;98148.00;;;;5064196;28;20217;-68
2022/05/09 02:27:14;;;;;;;0.10;0.10;;;9.00;99.90;7.80;98148.00;;;;5070959;28;20256;-68
2022/05/09 02:29:42;;;;;;;0.10;0.10;;;8.90;99.90;7.80;98135.00;;;;5053078;28;20264;-68
2022/05/09 02:32:13;;;;;;;0.10;0.10;;;9.00;99.90;7.80;98130.00;;;;5048780;28;20560;-68
2022/05/09 02:34:41;;;;;;;0.10;0.10;;;9.00;99.90;7.80;98129.00;;;;5051044;28;20622;-67
2022/05/09 02:37:09;;;;;;;0.00;0.00;;;8.90;99.90;7.60;98132.00;;;;5053016;28;20194;-67
2022/05/09 02:39:37;;;;;;;0.10;0.10;;;8.70;99.90;7.50;98127.00;;;;5058509;28;20190;-67
2022/05/09 02:42:06;;;;;;;0.10;0.10;;;8.60;99.90;7.50;98139.00;;;;5063000;28;20690;-67
2022/05/09 02:44:38;;;;;;;0.10;0.10;;;8.50;99.90;7.50;98130.00;;;;5069203;28;20228;-68
2022/05/09 02:47:06;;;;;;;0.10;0.10;;;8.50;99.90;7.50;98135.00;;;;5070375;28;20190;-67
2022/05/09 02:49:34;;;;;;;0.10;0.10;;;8.60;99.90;7.50;98133.00;;;;5060223;28;20202;-69
2022/05/09 02:52:04;;;;;;;0.10;0.10;;;8.50;99.90;7.50;98134.00;;;;5048654;28;20672;-69
2022/05/09 02:54:32;;;;;;;0.10;0.10;;;8.50;99.90;7.50;98130.00;;;;5030921;28;20673;-67
2022/05/09 02:57:00;;;;;;;0.10;0.10;;;8.60;99.90;7.50;98138.00;;;;5047781;28;20202;-69
2022/05/09 02:59:29;;;;;;;0.10;0.10;;;8.60;99.90;7.50;98139.00;;;;5040663;28;20277;-68
2022/05/09 03:02:01;;;;;;;0.10;0.10;;;8.60;99.90;7.50;98140.00;;;;5056273;28;20209;-67
2022/05/09 03:04:41;;;;;;;0.10;0.10;;;8.60;99.90;7.60;98134.00;;;;5051077;28;20211;-68
2022/05/09 03:07:15;;;;;;;0.10;0.10;;;8.60;99.90;7.60;98132.00;;;;5038086;28;20219;-67
2022/05/09 03:09:47;;;;;;;0.10;0.10;;;8.70;99.90;7.50;98135.00;;;;5049072;28;20206;-67
2022/05/09 03:12:18;;;;;;;0.10;0.10;;;8.70;99.90;7.60;98153.00;;;;5057336;28;20641;-67
2022/05/09 03:14:47;;;;;;;0.10;0.10;;;8.70;99.90;7.80;98152.00;;;;5038514;28;20778;-67
2022/05/09 03:17:16;;;;;;;0.10;0.10;;;8.90;99.90;7.80;98135.00;;;;5041584;28;20564;-70
2022/05/09 03:19:45;;;;;;;0.10;0.10;;;9.00;99.90;7.70;98156.00;;;;5050557;28;20201;-69
2022/05/09 03:22:14;;;;;;;0.10;0.10;;;8.90;99.90;7.50;98146.00;;;;5052336;28;20202;-68
2022/05/09 03:24:42;;;;;;;0.10;0.10;;;8.80;99.90;7.40;98148.00;;;;5060930;28;20209;-69
2022/05/09 03:27:14;;;;;;;0.10;0.10;;;8.60;99.90;7.30;98153.00;;;;5046287;28;20661;-69
2022/05/09 03:29:42;;;;;;;0.10;0.10;;;8.50;99.90;7.20;98138.00;;;;5048374;28;20199;-69
2022/05/09 03:32:10;;;;;;;0.10;0.10;;;8.30;99.90;7.10;98144.00;;;;5069894;28;20577;-69
2022/05/09 03:34:39;;;;;;;0.10;0.10;;;8.20;99.90;6.90;97867.00;;;;5073994;28;20210;-69
2022/05/09 03:37:08;;;;;;;0.10;0.10;;;8.10;99.90;7.00;97921.00;;;;5046436;28;20203;-69
2022/05/09 03:39:36;;;;;;;0.10;0.10;;;8.20;99.90;6.70;97339.00;;;;5036029;28;20540;-69
2022/05/09 03:42:06;;;;;;;0.10;0.10;;;8.30;99.90;6.90;97543.00;;;;5064799;28;20201;-69
2022/05/09 03:44:34;;;;;;;0.10;0.10;;;8.30;99.90;7.00;97676.00;;;;5069647;28;20213;-71
2022/05/09 03:47:02;;;;;;;0.10;0.10;;;8.50;99.90;7.00;97702.00;;;;5062709;28;20186;-70
2022/05/09 03:49:30;;;;;;;0.10;0.10;;;8.40;99.90;6.80;97667.00;;;;5037672;28;20203;-71
2022/05/09 03:51:59;;;;;;;0.00;0.00;;;8.30;99.90;6.70;97720.00;;;;5036687;28;20214;-70
2022/05/09 03:54:27;;;;;;;0.10;0.10;;;8.10;99.90;6.80;97815.00;;;;5046283;28;20244;-69
2022/05/09 03:56:58;;;;;;;0.10;0.10;;;8.10;99.90;6.80;97813.00;;;;5044593;28;20660;-69
2022/05/09 03:59:26;;;;;;;0.10;0.10;;;8.10;99.90;6.80;97870.00;;;;5055001;28;20255;-69
2022/05/09 04:01:56;;;;;;;0.10;0.10;;;8.10;99.90;6.90;97882.00;;;;5057995;28;20248;-69
2022/05/09 04:04:24;;;;;;;0.10;0.10;;;8.20;99.90;6.90;97874.00;;;;5053415;28;20183;-70
2022/05/09 04:06:52;;;;;;;0.10;0.10;;;8.10;99.90;7.00;97892.00;;;;5050950;28;20198;-69
2022/05/09 04:09:22;;;;;;;0.10;0.10;;;8.20;99.90;6.90;97867.00;;;;5052183;28;20194;-69
2022/05/09 04:11:50;;;;;;;0.10;0.10;;;8.20;99.90;6.90;97894.00;;;;5066169;28;20218;-70
2022/05/09 04:16:49;;;;;;;0.10;0.10;;;8.20;99.90;7.00;97887.00;;;;5053304;28;20205;-70
2022/05/09 04:17:07;;;;;;;0.10;0.10;;;8.20;99.90;7.10;97891.00;;;;5052658;28;20281;-70
2022/05/09 04:19:37;;;;;;;0.10;0.10;;;8.30;99.90;7.10;97845.00;;;;5063492;28;20191;-70
2022/05/09 04:22:06;;;;;;;0.10;0.10;;;8.30;99.90;7.10;97901.00;;;;5072711;28;20369;-68
2022/05/09 04:24:35;;;;;;;0.10;0.10;;;8.30;99.90;7.00;97897.00;;;;5050162;28;20215;-71
2022/05/09 04:27:04;;;;;;;0.10;0.10;;;8.30;99.90;7.10;97891.00;;;;5050111;28;20275;-70
2022/05/09 04:29:32;;;;;;;0.10;0.10;;;8.40;99.90;7.20;97900.00;;;;5045804;28;20588;-68
2022/05/09 04:32:00;;;;;;;0.10;0.10;;;8.40;99.90;7.20;97866.00;;;;5053914;28;20230;-68
2022/05/09 04:34:28;;;;;;;0.10;0.10;;;8.40;99.90;7.20;97859.00;;;;5045555;28;20297;-68
2022/05/09 04:36:57;;;;;;;0.10;0.10;;;8.50;99.90;7.10;97815.00;;;;5032558;28;20200;-67
2022/05/09 04:39:25;;;;;;;0.10;0.10;;;8.40;99.90;7.00;97766.00;;;;5057649;28;20194;-68
2022/05/09 04:41:57;;;;;;;0.10;0.10;;;8.40;99.90;7.10;97795.00;;;;5053922;28;20198;-68
2022/05/09 04:44:25;;;;;;;0.10;0.10;;;8.40;99.90;7.00;97520.00;;;;5054922;28;20198;-68
2022/05/09 04:46:52;;;;;;;0.10;0.10;;;8.50;99.90;7.30;97839.00;;;;5052470;28;20563;-69
2022/05/09 04:49:21;;;;;;;0.10;0.10;;;8.50;99.90;7.40;97854.00;;;;5051482;28;20206;-70
2022/05/09 04:51:48;;;;;;;0.10;0.10;;;8.60;99.90;7.40;97856.00;;;;5067958;28;20228;-69
2022/05/09 04:54:16;;;;;;;0.10;0.10;;;8.60;99.90;226.50;164481.00;;;;5073242;28;20193;-70
2022/05/09 04:56:44;;;;;;;0.10;0.10;;;8.60;99.90;226.50;231333.00;;;;5071157;28;20197;-70
2022/05/09 04:59:14;;;;;;;0.10;0.10;;;8.80;99.90;226.50;231333.00;;;;5072294;28;20426;-69
2022/05/09 05:01:42;;;;;;;0.10;0.10;;;8.90;99.90;226.50;231333.00;;;;5053749;28;20212;-68
2022/05/09 05:04:10;;;;;;;0.10;0.10;;;9.00;99.90;226.50;164780.00;;;;5069840;28;20204;-69
2022/05/09 05:06:38;;;;;;;0.00;0.00;;;9.00;99.90;226.50;231333.00;;;;5051884;28;20193;-69
2022/05/09 05:09:06;;;;;;;0.10;0.10;;;8.80;99.90;226.50;231333.00;;;;5038710;28;20205;-70
2022/05/09 05:11:34;;;;;;;0.10;0.10;;;8.70;99.90;226.50;231333.00;;;;5049355;28;20268;-71
2022/05/09 05:14:02;;;;;;;0.10;0.10;;;8.70;99.90;226.50;231333.00;;;;5047143;28;20194;-70
2022/05/09 05:19:20;;;;;;;0.10;0.10;;;8.70;51.30;226.50;231333.00;;;;5052758;28;20248;-69
2022/05/09 05:21:48;;;;;;;0.10;0.10;;;8.80;50.70;226.50;231333.00;;;;5052506;28;20198;-70
2022/05/09 05:24:19;;;;;;;0.10;0.10;;;8.80;20.70;226.50;231333.00;;;;5050648;28;20194;-69
2022/05/09 05:26:47;;;;;;;0.10;0.10;;;8.90;3.10;226.50;231333.00;;;;5050806;28;20202;-69
2022/05/09 05:29:15;;;;;;;0.10;0.10;;;8.90;99.90;226.50;231333.00;;;;5052543;28;20202;-70
2022/05/09 05:31:45;;;;;;;0.10;0.10;;;9.10;99.90;226.50;231333.00;;;;5051334;28;20210;-75
2022/05/09 05:34:13;;;;;;;0.10;0.10;;;9.10;99.90;226.50;231333.00;;;;5050907;28;20551;-71
2022/05/09 05:36:41;;;;;;;0.10;0.10;;;9.00;99.90;226.50;231333.00;;;;5051807;28;20186;-71
2022/05/09 05:39:15;;;;;;;0.10;0.10;;;9.10;99.90;226.50;231333.00;;;;5050127;28;20190;-71
2022/05/09 05:41:44;;;;;;;0.10;0.10;;;9.20;99.90;226.50;231333.00;;;;5041022;28;20252;-71
2022/05/09 05:44:13;;;;;;;0.10;0.10;;;9.30;95.60;226.50;231333.00;;;;5042625;28;20739;-71
2022/05/09 05:46:42;;;;;;;0.10;0.10;;;9.40;99.90;226.50;231333.00;;;;5042745;28;20199;-71
2022/05/09 05:49:14;;;;;;;0.10;0.10;;;9.50;99.90;226.50;231333.00;;;;5043001;28;20195;-71
2022/05/09 05:51:42;;;;;;;0.10;0.10;;;9.50;93.50;226.50;231333.00;;;;5032010;28;20218;-71
2022/05/09 05:58:42;;;;;;;0.10;0.10;;;9.70;1.00;226.50;231333.00;;;;5031437;28;20236;-71
2022/05/09 06:01:10;;;;;;;0.10;0.10;;;9.80;1.00;226.50;231333.00;;;;5031646;28;20187;-71
2022/05/09 06:03:38;;;;;;;0.10;0.10;;;9.80;1.00;226.50;231333.00;;;;5032355;28;20191;-71
2022/05/09 06:06:07;;;;;;;0.00;0.00;;;10.00;1.00;226.50;231333.00;;;;5031492;28;20223;-71
2022/05/09 06:08:38;;;;;;;0.10;0.10;;;10.10;1.00;226.50;231333.00;;;;5031723;28;20266;-71
2022/05/09 06:11:06;;;;;;;0.10;0.10;;;10.20;1.00;226.50;231333.00;;;;5038244;28;20209;-71
2022/05/09 06:13:34;;;;;;;0.00;0.00;;;10.30;1.00;226.50;231333.00;;;;5034914;28;20223;-71
2022/05/09 06:16:02;;;;;;;0.10;0.10;;;10.40;1.00;226.50;231333.00;;;;5031246;28;20219;-71
2022/05/09 06:18:35;;;;;;;0.10;0.10;;;10.50;1.00;226.50;231333.00;;;;5036811;28;20217;-71
2022/05/09 06:21:04;;;;;;;0.10;0.10;;;10.60;1.00;226.50;231333.00;;;;5051395;28;20199;-71
2022/05/09 06:23:34;;;;;;;0.10;0.10;;;10.70;1.00;226.50;231333.00;;;;5051611;28;20228;-71
2022/05/09 06:26:02;;;;;;;0.10;0.10;;;10.80;1.00;226.50;231333.00;;;;5051167;28;20225;-71
2022/05/09 06:28:31;;;;;;;0.10;0.10;;;10.90;1.00;226.50;231333.00;;;;5051301;28;20213;-71
2022/05/09 06:30:59;;;;;;;0.10;0.10;;;11.00;1.00;226.50;231333.00;;;;5050440;28;20244;-71
2022/05/09 06:33:27;;;;;;;0.10;0.10;;;11.20;1.00;226.50;231333.00;;;;5050478;28;20296;-71
2022/05/09 06:35:55;;;;;;;0.10;0.10;;;11.20;99.90;226.50;231333.00;;;;5051166;28;20687;-71
2022/05/09 06:38:25;;;;;;;0.10;0.10;;;11.30;99.90;226.50;231333.00;;;;5051261;28;20198;-71
2022/05/09 06:40:55;;;;;;;0.00;0.00;;;11.40;99.90;226.50;231333.00;;;;5066675;28;20183;-71
2022/05/09 06:43:23;;;;;;;0.10;0.10;;;11.60;99.90;226.50;231333.00;;;;5065957;28;20210;-71
2022/05/09 06:45:51;;;;;;;0.10;0.10;;;11.70;99.90;226.50;231333.00;;;;5051317;28;20600;-71
2022/05/09 06:48:21;;;;;;;0.10;0.10;;;11.90;99.90;226.50;231333.00;;;;5051143;28;20197;-71
2022/05/09 06:50:49;;;;;;;0.10;0.10;;;12.10;66.60;226.50;231333.00;;;;5051558;28;20695;-71
2022/05/09 06:53:17;;;;;;;0.10;0.10;;;12.20;1.00;226.50;231333.00;;;;5050932;28;20271;-71
2022/05/09 06:55:48;;;;;;;0.10;0.10;;;12.40;1.00;226.50;231333.00;;;;5050926;28;20214;-71
2022/05/09 06:58:22;;;;;;;0.10;0.10;;;12.50;1.00;226.50;231333.00;;;;5053563;28;20706;-71
2022/05/09 07:00:51;;;;;;;0.10;0.10;;;12.60;1.00;226.50;231333.00;;;;5055153;28;20212;-71
2022/05/09 07:03:21;;;;;;;0.10;0.10;;;12.80;99.90;226.50;231333.00;;;;5055594;28;20186;-71
2022/05/09 07:05:51;;;;;;;0.10;0.10;;;12.90;99.90;226.50;231333.00;;;;5056048;28;20210;-71
2022/05/09 07:08:22;;;;;;;0.10;0.10;;;13.10;99.90;226.50;231333.00;;;;5055455;28;20671;-71
2022/05/09 07:10:51;;;;;;;0.10;0.10;;;13.40;1.00;226.50;231333.00;;;;5054872;28;20236;-71
2022/05/09 07:13:41;;;;;;;0.10;0.10;;;13.50;1.00;226.50;231333.00;;;;5054471;28;20637;-71
2022/05/09 07:16:09;;;;;;;0.10;0.10;;;13.70;1.00;226.50;231333.00;;;;5054609;28;20219;-71
2022/05/09 07:18:38;;;;;;;0.10;0.10;;;13.90;1.00;226.50;231333.00;;;;5054608;28;20182;-71
2022/05/09 07:21:09;;;;;;;0.10;0.10;;;14.00;1.00;13.10;97579.00;;;;5054893;28;20686;-71
2022/05/09 07:23:38;;;;;;;0.10;0.10;;;14.10;99.90;13.20;97689.00;;;;5054690;28;20260;-71
2022/05/09 07:26:06;;;;;;;0.00;0.00;;;14.20;99.90;13.40;97716.00;;;;5054287;28;20627;-71
2022/05/09 07:28:34;;;;;;;0.00;0.00;;;14.40;99.90;13.60;97746.00;;;;5054423;28;20244;-73
2022/05/09 07:31:04;;;;;;;0.00;0.00;;;14.50;1.00;13.80;97823.00;;;;5054420;28;20191;-71
2022/05/09 07:33:32;;;;;;;0.10;0.10;;;14.60;1.00;13.90;97901.00;;;;5054154;28;20221;-71
2022/05/09 07:36:00;;;;;;;0.10;0.10;;;14.70;1.00;14.20;97941.00;;;;5054231;28;20210;-71
2022/05/09 07:38:28;;;;;;;0.00;0.00;;;14.90;1.00;14.40;97891.00;;;;5054263;28;20245;-71
2022/05/09 07:40:56;;;;;;;0.00;0.00;;;15.00;99.90;14.60;97971.00;;;;5055657;28;20244;-71
2022/05/09 07:43:29;;;;;;;0.00;0.00;;;15.20;99.90;14.70;97942.00;;;;5055207;28;20198;-72
2022/05/09 07:45:58;;;;;;;0.00;0.00;;;15.40;1.00;14.90;97973.00;;;;5055108;28;20927;-72
2022/05/09 07:48:29;;;;;;;0.00;0.00;;;15.70;99.90;15.30;97978.00;;;;5056928;28;20187;-71
2022/05/09 07:51:00;;;;;;;0.00;0.00;;;16.00;1.00;15.50;98009.00;;;;5056622;28;20210;-71
2022/05/09 07:53:32;;;;;;;0.00;0.00;;;16.10;1.00;15.70;97998.00;;;;5055769;28;20219;-70
2022/05/09 07:56:02;;;;;;;0.00;0.00;;;16.30;1.00;15.90;97997.00;;;;5056348;28;20214;-71
2022/05/09 07:58:31;;;;;;;0.00;0.00;;;16.50;1.00;16.10;97999.00;;;;5056309;28;20214;-72
2022/05/09 08:01:00;;;;;;;0.00;0.00;;;16.60;1.00;16.30;98032.00;;;;5054469;28;20202;-71
2022/05/09 08:03:33;;;;;;;0.00;0.00;;;16.80;99.90;16.40;98001.00;;;;5055500;28;20190;-71
2022/05/09 08:06:02;;;;;;;0.00;0.00;;;17.00;99.90;16.60;97996.00;;;;5055036;28;20218;-71
2022/05/09 08:08:32;;;;;;;0.00;0.00;;;17.20;1.00;16.80;98007.00;;;;5054164;28;20676;-71
2022/05/09 08:11:01;;;;;;;0.00;0.00;;;17.40;1.00;17.00;97992.00;;;;5055609;28;20232;-72
2022/05/09 08:13:35;;;;;;;0.00;0.00;;;17.60;99.90;17.20;97994.00;;;;5055825;28;20222;-72
2022/05/09 08:16:05;;;;;;;0.00;0.00;;;17.70;99.90;17.40;98003.00;;;;5055607;28;20607;-71
2022/05/09 08:18:35;;;;;;;0.00;0.00;;;17.90;69.20;17.60;97994.00;;;;5054208;28;20656;-71
2022/05/09 08:21:04;;;;;;;0.00;0.00;;;18.10;1.00;17.80;97990.00;;;;5053975;28;20256;-71
2022/05/09 08:23:32;;;;;;;0.00;0.00;;;18.40;1.00;18.00;97958.00;;;;5055149;28;20201;-71
2022/05/09 08:26:03;;;;;;;0.00;0.00;;;18.60;1.00;18.20;97990.00;;;;5055667;28;20207;-72
2022/05/09 08:28:32;;;;;;;0.00;0.00;;;18.70;1.00;18.40;97981.00;;;;5056861;28;20194;-71
2022/05/09 08:31:00;;;;;;;0.00;0.00;;;18.90;99.90;18.40;97981.00;;;;5055772;28;20209;-71
2022/05/09 08:33:30;;;;;;;0.00;0.00;;;19.00;99.90;18.50;97981.00;;;;5055888;28;20211;-72
2022/05/09 08:36:02;;;;;;;0.00;0.00;;;19.10;99.90;18.70;97972.00;;;;5058484;28;20207;-72
2022/05/09 08:38:30;;;;;;;0.00;0.00;;;19.20;99.90;18.90;97950.00;;;;5057672;28;20195;-71
2022/05/09 08:41:09;;;;;;;0.00;0.00;;;19.40;99.90;19.10;97961.00;;;;5056357;28;20221;-71
2022/05/09 08:44:04;;;;;;;0.00;0.00;;;19.60;99.90;19.10;97982.00;;;;5055405;28;20282;-72
2022/05/09 08:46:40;;;;;;;0.00;0.00;;;19.70;99.90;18.90;97982.00;;;;5053540;28;20585;-72
2022/05/09 08:49:31;;;;;;;0.05;0.05;;;19.60;99.90;19.10;97980.00;;;;5053231;28;20680;-72
2022/05/09 08:52:17;;;;;;;0.00;0.00;;;19.70;99.90;19.30;97968.00;;;;5053317;28;20236;-72
2022/05/09 08:54:45;;;;;;;0.00;0.00;;;19.80;1.00;19.50;97984.00;;;;5052731;28;20230;-72
2022/05/09 08:57:20;;;;;;;0.00;0.00;;;20.00;1.00;19.80;97975.00;;;;5052617;28;20191;-72
2022/05/09 08:59:57;;;;;;;0.00;0.00;;;20.30;99.90;19.90;97985.00;;;;5052864;28;20190;-72
2022/05/09 09:02:34;;;;;;;0.00;0.00;;;20.40;1.00;20.00;97986.00;;;;5052688;28;20193;-72
2022/05/09 09:05:03;;;;;;;0.00;0.00;;;20.50;1.00;20.10;97987.00;;;;5053072;28;20624;-72
2022/05/09 09:07:52;;;;;;;0.00;0.00;;;20.70;99.90;20.40;97987.00;;;;5052322;28;20277;-72
2022/05/09 09:10:31;;;;;;;0.00;0.00;;;20.80;99.90;20.60;97964.00;;;;5052685;28;20252;-72
2022/05/09 09:13:28;;;;;;;0.00;0.00;;;21.00;67.50;20.70;98001.00;;;;5052610;28;20599;-72
2022/05/09 09:16:16;;;;;;;0.00;0.00;;;21.10;99.90;20.80;98002.00;;;;5052771;28;20271;-72
2022/05/09 09:19:09;;;;;;;0.00;0.00;;;21.30;99.90;20.90;97996.00;;;;5052523;28;20286;-72
2022/05/09 09:21:50;;;;;;;0.00;0.00;;;21.30;99.90;20.90;97999.00;;;;5052658;28;20573;-72
2022/05/09 09:25:08;;;;;;;0.00;0.00;;;21.40;99.90;21.00;98003.00;;;;5052816;28;20206;-72
2022/05/09 09:27:45;;;;;;;0.00;0.00;;;21.50;99.90;21.10;97991.00;;;;5053398;28;20202;-72
2022/05/09 09:30:17;;;;;;;0.00;0.00;;;21.70;99.90;21.10;97988.00;;;;5052522;28;20659;-72
2022/05/09 09:32:51;;;;;;;0.00;0.00;;;21.70;99.90;21.30;97979.00;;;;5052646;28;20565;-72
2022/05/09 09:35:32;;;;;;;0.00;0.00;;;21.80;99.90;21.60;97991.00;;;;5052576;28;20226;-72
2022/05/09 09:38:19;;;;;;;0.00;0.00;;;22.00;99.60;21.70;98008.00;;;;5052654;28;20198;-72
2022/05/09 09:40:49;;;;;;;0.00;0.00;;;22.20;99.30;21.40;97951.00;;;;5052869;28;20662;-72
2022/05/09 09:43:19;;;;;;;0.00;0.00;;;22.10;99.10;21.40;97983.00;;;;5052143;28;20659;-72
2022/05/09 09:46:03;;;;;;;0.00;0.00;;;22.10;99.80;21.70;97994.00;;;;5051830;28;20211;-72
2022/05/09 09:48:31;;;;;;;0.00;0.00;;;22.20;99.60;21.60;97963.00;;;;5051671;28;20186;-72
2022/05/09 09:51:04;;;;;;;0.00;0.00;;;22.10;99.50;21.50;97978.00;;;;5051828;28;20255;-72
2022/05/09 09:53:39;;;;;;;0.00;0.00;;;22.10;99.00;21.50;97999.00;;;;5051682;28;20229;-72
2022/05/09 09:56:27;;;;;;;0.00;0.00;;;22.10;99.60;21.90;97996.00;;;;5051915;28;20220;-71
2022/05/09 09:59:00;;;;;;;0.00;0.00;;;22.40;99.60;22.00;98011.00;;;;5051566;28;20281;-72
2022/05/09 10:01:32;;;;;;;0.00;0.00;;;22.50;98.80;22.10;98001.00;;;;5051752;28;20659;-72
2022/05/09 10:04:09;;;;;;;0.00;0.00;;;22.60;99.10;22.50;97934.00;;;;5051664;28;20569;-72
2022/05/09 10:07:00;;;;;;;0.00;0.00;;;22.80;98.50;22.60;97974.00;;;;5051116;28;20721;-72
2022/05/09 10:09:34;;;;;;;0.00;0.00;;;23.00;98.50;22.60;97975.00;;;;5051538;28;20190;-72
2022/05/09 10:12:20;;;;;;;0.00;0.00;;;23.10;98.00;22.70;97991.00;;;;5051729;28;20190;-73
2022/05/09 10:14:49;;;;;;;0.00;0.00;;;23.10;97.90;22.60;97969.00;;;;5051261;28;20222;-72
2022/05/09 10:17:27;;;;;;;0.00;0.00;;;23.10;98.30;22.90;97948.00;;;;5051547;28;20189;-72
2022/05/09 10:19:58;;;;;;;0.00;0.00;;;23.30;97.40;23.00;97951.00;;;;5051626;28;20577;-72
2022/05/09 10:25:22;;;;;;;0.00;0.00;;;23.40;96.70;22.60;97937.00;;;;5051344;28;20631;-72
2022/05/09 10:28:10;;;;;;;0.00;0.00;;;23.20;97.80;23.20;97955.00;;;;5051503;28;20707;-72
2022/05/09 10:30:43;;;;;;;0.00;0.00;;;23.50;97.10;23.20;97928.00;;;;5051565;28;20660;-72
2022/05/09 10:33:25;;;;;;;0.00;0.00;;;23.60;97.10;23.40;97926.00;;;;5054715;28;20205;-72
2022/05/09 10:35:58;;;;;;;0.00;0.00;;;23.70;96.90;23.60;97942.00;;;;5055790;28;20222;-72
2022/05/09 10:38:38;;;;;;;0.00;0.00;;;23.90;95.90;23.80;97915.00;;;;5055419;28;20660;-72
2022/05/09 10:41:16;;;;;;;0.00;0.00;;;24.10;95.80;23.80;97928.00;;;;5055539;28;20190;-72
2022/05/09 10:43:53;;;;;;;0.00;0.00;;;24.20;95.20;23.60;97938.00;;;;5055593;28;20228;-72
2022/05/09 10:46:28;;;;;;;0.00;0.00;;;24.00;95.50;23.90;97924.00;;;;5055095;28;20213;-72
2022/05/09 10:49:02;;;;;;;0.00;0.00;;;24.20;95.50;23.70;97918.00;;;;5055258;28;20683;-72
2022/05/09 10:51:40;;;;;;;0.00;0.00;;;24.10;95.30;24.00;97923.00;;;;5055192;28;20190;-72
2022/05/09 10:54:23;;;;;;;0.00;0.00;;;24.30;95.60;24.10;97910.00;;;;5055357;28;20260;-72
2022/05/09 10:57:02;;;;;;;0.00;0.00;;;24.50;94.50;24.20;97904.00;;;;5054968;28;20589;-72
2022/05/09 10:59:36;;;;;;;0.00;0.00;;;24.60;94.30;24.40;97908.00;;;;5055225;28;20198;-72
2022/05/09 11:02:13;;;;;;;0.00;0.00;;;24.70;94.50;24.40;97911.00;;;;5055394;28;20190;-72
2022/05/09 11:04:41;;;;;;;0.00;0.00;;;24.80;94.30;24.60;97915.00;;;;5055068;28;20233;-72
2022/05/09 11:07:22;;;;;;;0.00;0.00;;;24.80;93.90;24.00;97901.00;;;;5054929;28;20221;-72
2022/05/09 11:10:10;;;;;;;0.00;0.00;;;24.60;94.40;24.10;97902.00;;;;5055139;28;20187;-72
2022/05/09 11:12:51;;;;;;;0.00;0.00;;;24.60;94.60;24.50;97904.00;;;;5054667;28;20190;-72
2022/05/09 11:15:35;;;;;;;0.00;0.00;;;24.70;94.70;24.70;97909.00;;;;5054927;28;20612;-72
2022/05/09 11:18:45;;;;;;;0.00;0.00;;;24.90;94.40;24.90;97894.00;;;;5054809;28;20535;-72
2022/05/09 11:21:32;;;;;;;0.00;0.00;;;25.10;93.50;24.90;97894.00;;;;5051404;28;20555;-72
2022/05/09 11:24:14;;;;;;;0.00;0.00;;;25.20;93.80;25.30;97896.00;;;;5055229;28;20671;-72
2022/05/09 11:26:51;;;;;;;0.00;0.00;;;25.50;93.10;25.30;97910.00;;;;5070010;28;20214;-72
2022/05/09 11:29:36;;;;;;;0.00;0.00;;;25.60;92.80;24.80;97885.00;;;;5055226;28;20605;-71
2022/05/09 11:32:27;;;;;;;0.00;0.00;;;25.40;92.80;24.60;97882.00;;;;5054727;28;20198;-72
2022/05/09 11:35:36;;;;;;;0.00;0.00;;;25.10;93.10;24.20;97875.00;;;;5055570;28;20268;-71
2022/05/09 11:38:26;;;;;;;0.00;0.00;;;25.00;92.90;24.50;97885.00;;;;5054804;28;20211;-72